sensor_id;sensor_type;location;lat;lon;timestamp;pressure;altitude;pressure_sealevel;temperature;humidity
63088;BME280;49173;43.164;27.786;2023-04-04T00:02:06;99784.41;;;8.78;100.00
63088;BME280;49173;43.164;27.786;2023-04-04T00:04:32;99791.47;;;8.79;100.00
63088;BME280;49173;43.164;27.786;2023-04-04T00:06:59;99801.50;;;8.75;100.00
63088;BME280;49173;43.164;27.786;2023-04-04T00:09:25;99774.84;;;8.74;100.00
63088;BME280;49173;43.164;27.786;2023-04-04T00:11:51;99796.50;;;8.69;100.00
63088;BME280;49173;43.164;27.786;2023-04-04T00:14:17;99771.13;;;8.76;100.00
63088;BME280;49173;43.164;27.786;2023-04-04T00:16:43;99767.59;;;8.76;99.95
63088;BME280;49173;43.164;27.786;2023-04-04T00:19:09;99771.13;;;8.76;99.59
63088;BME280;49173;43.164;27.786;2023-04-04T00:21:38;99772.16;;;8.74;99.73
63088;BME280;49173;43.164;27.786;2023-04-04T00:24:05;99778.94;;;8.79;99.37
63088;BME280;49173;43.164;27.786;2023-04-04T00:26:31;99779.66;;;8.83;99.54
63088;BME280;49173;43.164;27.786;2023-04-04T00:28:56;99757.09;;;8.87;98.82
63088;BME280;49173;43.164;27.786;2023-04-04T00:31:22;99753.31;;;8.91;98.21
63088;BME280;49173;43.164;27.786;2023-04-04T00:33:48;99748.91;;;8.90;98.74
63088;BME280;49173;43.164;27.786;2023-04-04T00:36:13;99744.34;;;8.92;98.39
63088;BME280;49173;43.164;27.786;2023-04-04T00:38:39;99737.34;;;8.90;98.48
63088;BME280;49173;43.164;27.786;2023-04-04T00:41:05;99736.50;;;8.89;98.23
63088;BME280;49173;43.164;27.786;2023-04-04T00:43:31;99710.59;;;8.90;97.73
63088;BME280;49173;43.164;27.786;2023-04-04T00:45:58;99706.88;;;8.92;97.54
63088;BME280;49173;43.164;27.786;2023-04-04T00:48:24;99700.66;;;8.92;97.80
63088;BME280;49173;43.164;27.786;2023-04-04T00:50:51;99686.31;;;8.93;97.91
63088;BME280;49173;43.164;27.786;2023-04-04T00:53:17;99709.28;;;8.97;97.52
63088;BME280;49173;43.164;27.786;2023-04-04T00:55:43;99682.41;;;8.98;97.24
63088;BME280;49173;43.164;27.786;2023-04-04T00:58:09;99686.06;;;8.97;97.43
63088;BME280;49173;43.164;27.786;2023-04-04T01:00:36;99676.31;;;8.96;97.49
63088;BME280;49173;43.164;27.786;2023-04-04T01:03:02;99670.75;;;8.99;97.10
63088;BME280;49173;43.164;27.786;2023-04-04T01:05:30;99667.97;;;9.01;96.98
63088;BME280;49173;43.164;27.786;2023-04-04T01:07:56;99682.31;;;9.00;96.99
63088;BME280;49173;43.164;27.786;2023-04-04T01:10:22;99642.06;;;9.01;96.75
63088;BME280;49173;43.164;27.786;2023-04-04T01:12:49;99661.66;;;9.02;96.96
63088;BME280;49173;43.164;27.786;2023-04-04T01:15:15;99666.16;;;9.01;96.83
63088;BME280;49173;43.164;27.786;2023-04-04T01:17:41;99660.66;;;9.04;96.64
63088;BME280;49173;43.164;27.786;2023-04-04T01:20:18;99646.22;;;9.07;96.29
63088;BME280;49173;43.164;27.786;2023-04-04T01:22:46;99660.44;;;9.07;96.37
63088;BME280;49173;43.164;27.786;2023-04-04T01:25:13;99651.56;;;9.07;96.55
63088;BME280;49173;43.164;27.786;2023-04-04T01:27:42;99659.13;;;9.15;95.70
63088;BME280;49173;43.164;27.786;2023-04-04T01:30:09;99665.53;;;9.12;96.30
63088;BME280;49173;43.164;27.786;2023-04-04T01:41:38;99623.94;;;9.06;96.60
63088;BME280;49173;43.164;27.786;2023-04-04T01:44:05;99607.88;;;9.06;96.58
63088;BME280;49173;43.164;27.786;2023-04-04T01:46:31;99598.88;;;9.07;96.65
63088;BME280;49173;43.164;27.786;2023-04-04T01:48:57;99593.63;;;9.06;97.07
63088;BME280;49173;43.164;27.786;2023-04-04T01:51:23;99593.53;;;9.07;97.17
63088;BME280;49173;43.164;27.786;2023-04-04T01:53:49;99600.59;;;9.08;97.18
63088;BME280;49173;43.164;27.786;2023-04-04T01:56:14;99575.00;;;9.04;97.67
63088;BME280;49173;43.164;27.786;2023-04-04T01:58:40;99575.47;;;9.11;97.38
63088;BME280;49173;43.164;27.786;2023-04-04T02:01:06;99565.81;;;9.08;97.12
63088;BME280;49173;43.164;27.786;2023-04-04T02:03:32;99545.34;;;9.07;97.54
63088;BME280;49173;43.164;27.786;2023-04-04T02:05:58;99585.22;;;9.12;97.50
63088;BME280;49173;43.164;27.786;2023-04-04T02:08:24;99547.66;;;9.14;97.55
63088;BME280;49173;43.164;27.786;2023-04-04T02:10:50;99548.63;;;9.13;97.78
63088;BME280;49173;43.164;27.786;2023-04-04T02:13:15;99548.50;;;9.14;97.72
63088;BME280;49173;43.164;27.786;2023-04-04T02:15:42;99552.72;;;9.18;97.58
63088;BME280;49173;43.164;27.786;2023-04-04T02:18:09;99548.22;;;9.19;97.37
63088;BME280;49173;43.164;27.786;2023-04-04T02:20:34;99562.38;;;9.21;97.42
63088;BME280;49173;43.164;27.786;2023-04-04T02:23:00;99560.19;;;9.27;97.47
63088;BME280;49173;43.164;27.786;2023-04-04T02:25:25;99551.09;;;9.30;96.95
63088;BME280;49173;43.164;27.786;2023-04-04T02:27:52;99545.28;;;9.38;96.83
63088;BME280;49173;43.164;27.786;2023-04-04T02:30:18;99549.84;;;9.35;96.95
63088;BME280;49173;43.164;27.786;2023-04-04T02:32:43;99548.03;;;9.36;97.42
63088;BME280;49173;43.164;27.786;2023-04-04T02:35:09;99536.28;;;9.39;97.74
63088;BME280;49173;43.164;27.786;2023-04-04T02:37:35;99533.59;;;9.39;97.43
63088;BME280;49173;43.164;27.786;2023-04-04T02:40:01;99530.59;;;9.43;97.13
63088;BME280;49173;43.164;27.786;2023-04-04T02:42:27;99530.53;;;9.45;97.35
63088;BME280;49173;43.164;27.786;2023-04-04T02:44:53;99523.84;;;9.52;97.33
63088;BME280;49173;43.164;27.786;2023-04-04T02:47:19;99516.66;;;9.52;97.28
63088;BME280;49173;43.164;27.786;2023-04-04T02:49:45;99515.69;;;9.53;97.03
63088;BME280;49173;43.164;27.786;2023-04-04T02:52:11;99505.72;;;9.55;97.28
63088;BME280;49173;43.164;27.786;2023-04-04T02:54:37;99505.94;;;9.52;97.10
63088;BME280;49173;43.164;27.786;2023-04-04T02:57:03;99496.16;;;9.51;97.55
63088;BME280;49173;43.164;27.786;2023-04-04T02:59:29;99508.22;;;9.58;97.56
63088;BME280;49173;43.164;27.786;2023-04-04T03:01:54;99493.94;;;9.58;97.36
63088;BME280;49173;43.164;27.786;2023-04-04T03:04:20;99501.13;;;9.57;97.43
63088;BME280;49173;43.164;27.786;2023-04-04T03:06:46;99489.25;;;9.61;97.10
63088;BME280;49173;43.164;27.786;2023-04-04T03:09:13;99483.78;;;9.63;96.92
63088;BME280;49173;43.164;27.786;2023-04-04T03:11:39;99497.41;;;9.60;96.99
63088;BME280;49173;43.164;27.786;2023-04-04T03:14:04;99504.47;;;9.61;97.11
63088;BME280;49173;43.164;27.786;2023-04-04T03:16:31;99493.00;;;9.59;96.50
63088;BME280;49173;43.164;27.786;2023-04-04T03:18:57;99495.59;;;9.60;96.68
63088;BME280;49173;43.164;27.786;2023-04-04T03:21:23;99489.03;;;9.64;96.63
63088;BME280;49173;43.164;27.786;2023-04-04T03:23:49;99489.03;;;9.64;96.37
63088;BME280;49173;43.164;27.786;2023-04-04T03:26:15;99491.25;;;9.58;96.65
63088;BME280;49173;43.164;27.786;2023-04-04T03:28:41;99494.41;;;9.64;96.38
63088;BME280;49173;43.164;27.786;2023-04-04T03:31:07;99497.88;;;9.67;96.35
63088;BME280;49173;43.164;27.786;2023-04-04T03:33:36;99508.66;;;9.65;96.07
63088;BME280;49173;43.164;27.786;2023-04-04T03:36:12;99510.47;;;9.64;95.89
63088;BME280;49173;43.164;27.786;2023-04-04T03:38:38;99516.50;;;9.68;95.70
63088;BME280;49173;43.164;27.786;2023-04-04T03:41:05;99516.50;;;9.68;95.44
63088;BME280;49173;43.164;27.786;2023-04-04T03:43:31;99511.25;;;9.67;95.64
63088;BME280;49173;43.164;27.786;2023-04-04T03:46:01;99518.22;;;9.69;95.76
63088;BME280;49173;43.164;27.786;2023-04-04T03:48:28;99525.19;;;9.72;95.32
63088;BME280;49173;43.164;27.786;2023-04-04T03:50:55;99507.97;;;9.76;95.48
63088;BME280;49173;43.164;27.786;2023-04-04T03:53:23;99516.41;;;9.70;95.74
63088;BME280;49173;43.164;27.786;2023-04-04T03:55:49;99513.44;;;9.74;95.51
63088;BME280;49173;43.164;27.786;2023-04-04T03:58:15;99505.94;;;9.79;95.12
63088;BME280;49173;43.164;27.786;2023-04-04T04:00:41;99509.22;;;9.70;95.68
63088;BME280;49173;43.164;27.786;2023-04-04T04:03:06;99496.34;;;9.62;96.42
63088;BME280;49173;43.164;27.786;2023-04-04T04:05:32;99493.25;;;9.69;97.19
63088;BME280;49173;43.164;27.786;2023-04-04T04:07:58;99496.03;;;9.67;96.96
63088;BME280;49173;43.164;27.786;2023-04-04T04:10:24;99489.16;;;9.63;97.61
63088;BME280;49173;43.164;27.786;2023-04-04T04:12:50;99505.44;;;9.60;98.08
63088;BME280;49173;43.164;27.786;2023-04-04T04:15:16;99495.97;;;9.54;98.54
63088;BME280;49173;43.164;27.786;2023-04-04T04:17:42;99481.50;;;9.57;98.44
63088;BME280;49173;43.164;27.786;2023-04-04T04:20:08;99467.47;;;9.53;99.27
63088;BME280;49173;43.164;27.786;2023-04-04T04:22:34;99466.63;;;9.53;99.51
63088;BME280;49173;43.164;27.786;2023-04-04T04:25:01;99457.16;;;9.47;99.53
63088;BME280;49173;43.164;27.786;2023-04-04T04:27:27;99446.72;;;9.43;100.00
63088;BME280;49173;43.164;27.786;2023-04-04T04:29:54;99437.19;;;9.39;100.00
63088;BME280;49173;43.164;27.786;2023-04-04T04:32:20;99418.44;;;9.39;100.00
63088;BME280;49173;43.164;27.786;2023-04-04T04:34:46;99425.81;;;9.35;100.00
63088;BME280;49173;43.164;27.786;2023-04-04T04:37:15;99415.56;;;9.42;100.00
63088;BME280;49173;43.164;27.786;2023-04-04T04:39:42;99404.09;;;9.40;100.00
63088;BME280;49173;43.164;27.786;2023-04-04T04:42:08;99412.25;;;9.38;100.00
63088;BME280;49173;43.164;27.786;2023-04-04T04:44:34;99416.41;;;9.42;100.00
63088;BME280;49173;43.164;27.786;2023-04-04T04:47:18;99448.38;;;9.45;100.00
63088;BME280;49173;43.164;27.786;2023-04-04T04:49:44;99467.00;;;9.47;100.00
63088;BME280;49173;43.164;27.786;2023-04-04T04:52:14;99489.00;;;9.52;99.71
63088;BME280;49173;43.164;27.786;2023-04-04T04:54:41;99506.28;;;9.60;99.64
63088;BME280;49173;43.164;27.786;2023-04-04T04:57:08;99512.88;;;9.69;98.29
63088;BME280;49173;43.164;27.786;2023-04-04T04:59:34;99523.94;;;9.77;98.42
63088;BME280;49173;43.164;27.786;2023-04-04T05:02:03;99516.59;;;9.81;97.97
63088;BME280;49173;43.164;27.786;2023-04-04T05:04:30;99505.53;;;9.85;97.63
63088;BME280;49173;43.164;27.786;2023-04-04T05:06:56;99513.28;;;9.90;96.90
63088;BME280;49173;43.164;27.786;2023-04-04T05:09:24;99520.25;;;9.93;95.88
63088;BME280;49173;43.164;27.786;2023-04-04T05:11:50;99524.00;;;9.90;95.82
63088;BME280;49173;43.164;27.786;2023-04-04T05:14:16;99519.91;;;9.84;95.64
63088;BME280;49173;43.164;27.786;2023-04-04T05:16:43;99534.63;;;9.91;95.56
63088;BME280;49173;43.164;27.786;2023-04-04T05:19:10;99524.47;;;9.97;95.37
63088;BME280;49173;43.164;27.786;2023-04-04T05:21:36;99531.66;;;9.96;95.06
63088;BME280;49173;43.164;27.786;2023-04-04T05:24:04;99518.25;;;9.96;94.51
63088;BME280;49173;43.164;27.786;2023-04-04T05:26:31;99525.78;;;10.04;94.48
63088;BME280;49173;43.164;27.786;2023-04-04T05:28:57;99522.13;;;10.05;94.44
63088;BME280;49173;43.164;27.786;2023-04-04T05:31:24;99516.13;;;10.01;94.27
63088;BME280;49173;43.164;27.786;2023-04-04T05:33:56;99501.09;;;9.99;94.35
63088;BME280;49173;43.164;27.786;2023-04-04T05:36:22;99509.91;;;10.01;94.35
63088;BME280;49173;43.164;27.786;2023-04-04T05:38:50;99503.66;;;10.00;94.25
63088;BME280;49173;43.164;27.786;2023-04-04T05:41:17;99504.09;;;9.94;94.85
63088;BME280;49173;43.164;27.786;2023-04-04T05:43:43;99512.66;;;9.99;94.40
63088;BME280;49173;43.164;27.786;2023-04-04T05:46:09;99521.69;;;9.98;94.29
63088;BME280;49173;43.164;27.786;2023-04-04T05:48:35;99533.94;;;10.02;94.32
63088;BME280;49173;43.164;27.786;2023-04-04T05:51:02;99531.38;;;10.01;94.15
63088;BME280;49173;43.164;27.786;2023-04-04T05:53:28;99511.19;;;9.95;94.35
63088;BME280;49173;43.164;27.786;2023-04-04T05:55:55;99505.59;;;9.98;94.76
63088;BME280;49173;43.164;27.786;2023-04-04T05:58:23;99502.69;;;9.88;95.29
63088;BME280;49173;43.164;27.786;2023-04-04T06:00:49;99495.50;;;9.89;95.68
63088;BME280;49173;43.164;27.786;2023-04-04T06:03:16;99491.09;;;9.88;95.91
63088;BME280;49173;43.164;27.786;2023-04-04T06:05:42;99475.88;;;9.88;96.00
63088;BME280;49173;43.164;27.786;2023-04-04T06:08:09;99477.69;;;9.88;96.23
63088;BME280;49173;43.164;27.786;2023-04-04T06:10:35;99482.09;;;9.89;96.01
63088;BME280;49173;43.164;27.786;2023-04-04T06:13:02;99479.41;;;9.89;96.38
63088;BME280;49173;43.164;27.786;2023-04-04T06:15:31;99486.19;;;9.95;96.01
63088;BME280;49173;43.164;27.786;2023-04-04T06:17:57;99490.59;;;9.96;96.50
63088;BME280;49173;43.164;27.786;2023-04-04T06:20:25;99487.69;;;9.99;96.79
63088;BME280;49173;43.164;27.786;2023-04-04T06:22:52;99488.53;;;9.99;96.42
63088;BME280;49173;43.164;27.786;2023-04-04T06:25:20;99495.94;;;9.96;97.05
63088;BME280;49173;43.164;27.786;2023-04-04T06:27:46;99473.66;;;9.95;97.25
63088;BME280;49173;43.164;27.786;2023-04-04T06:30:13;99466.47;;;9.96;97.71
63088;BME280;49173;43.164;27.786;2023-04-04T06:32:41;99469.03;;;9.97;97.69
63088;BME280;49173;43.164;27.786;2023-04-04T06:35:08;99457.34;;;9.98;98.19
63088;BME280;49173;43.164;27.786;2023-04-04T06:37:35;99471.50;;;10.00;98.46
63088;BME280;49173;43.164;27.786;2023-04-04T06:40:04;99455.84;;;9.94;98.12
63088;BME280;49173;43.164;27.786;2023-04-04T06:42:31;99448.00;;;9.91;98.30
63088;BME280;49173;43.164;27.786;2023-04-04T06:44:57;99454.97;;;9.94;98.69
63088;BME280;49173;43.164;27.786;2023-04-04T06:47:24;99444.47;;;9.90;98.74
63088;BME280;49173;43.164;27.786;2023-04-04T06:49:51;99440.69;;;9.93;99.28
63088;BME280;49173;43.164;27.786;2023-04-04T06:52:18;99429.91;;;9.95;99.55
63088;BME280;49173;43.164;27.786;2023-04-04T06:54:44;99421.94;;;9.93;99.54
63088;BME280;49173;43.164;27.786;2023-04-04T06:57:11;99419.06;;;9.96;99.44
63088;BME280;49173;43.164;27.786;2023-04-04T06:59:37;99417.38;;;9.95;99.87
63088;BME280;49173;43.164;27.786;2023-04-04T07:02:03;99412.97;;;9.94;99.96
63088;BME280;49173;43.164;27.786;2023-04-04T07:04:39;99431.63;;;9.96;99.65
63088;BME280;49173;43.164;27.786;2023-04-04T07:07:10;99415.44;;;9.97;100.00
63088;BME280;49173;43.164;27.786;2023-04-04T07:09:37;99393.97;;;9.97;99.51
63088;BME280;49173;43.164;27.786;2023-04-04T07:12:06;99411.88;;;9.97;100.00
63088;BME280;49173;43.164;27.786;2023-04-04T07:14:32;99432.38;;;9.98;99.90
63088;BME280;49173;43.164;27.786;2023-04-04T07:16:59;99425.94;;;10.00;99.70
63088;BME280;49173;43.164;27.786;2023-04-04T07:19:27;99430.53;;;9.98;99.32
63088;BME280;49173;43.164;27.786;2023-04-04T07:21:55;99446.63;;;9.98;99.47
63088;BME280;49173;43.164;27.786;2023-04-04T07:24:24;99437.09;;;9.94;99.54
63088;BME280;49173;43.164;27.786;2023-04-04T07:26:50;99432.66;;;9.93;99.40
63088;BME280;49173;43.164;27.786;2023-04-04T07:29:18;99420.34;;;9.90;99.30
63088;BME280;49173;43.164;27.786;2023-04-04T07:31:46;99422.81;;;9.94;99.83
63088;BME280;49173;43.164;27.786;2023-04-04T07:34:12;99409.72;;;9.89;99.41
63088;BME280;49173;43.164;27.786;2023-04-04T07:36:39;99406.19;;;9.88;99.37
63088;BME280;49173;43.164;27.786;2023-04-04T07:39:07;99390.41;;;9.84;99.30
63088;BME280;49173;43.164;27.786;2023-04-04T07:41:37;99388.69;;;9.83;99.33
63088;BME280;49173;43.164;27.786;2023-04-04T07:44:03;99380.78;;;9.81;99.99
63088;BME280;49173;43.164;27.786;2023-04-04T07:46:30;99376.28;;;9.82;100.00
63088;BME280;49173;43.164;27.786;2023-04-04T07:48:59;99393.84;;;9.86;100.00
63088;BME280;49173;43.164;27.786;2023-04-04T07:51:28;99395.38;;;9.90;100.00
63088;BME280;49173;43.164;27.786;2023-04-04T07:53:58;99402.44;;;9.91;100.00
63088;BME280;49173;43.164;27.786;2023-04-04T07:56:25;99400.31;;;9.96;99.82
63088;BME280;49173;43.164;27.786;2023-04-04T07:58:51;99403.09;;;9.95;100.00
63088;BME280;49173;43.164;27.786;2023-04-04T08:01:20;99404.72;;;9.97;99.54
63088;BME280;49173;43.164;27.786;2023-04-04T08:03:47;99387.88;;;9.95;99.83
63088;BME280;49173;43.164;27.786;2023-04-04T08:06:14;99385.28;;;9.94;99.81
63088;BME280;49173;43.164;27.786;2023-04-04T08:08:41;99372.09;;;9.90;100.00
63088;BME280;49173;43.164;27.786;2023-04-04T08:11:07;99371.13;;;9.91;100.00
63088;BME280;49173;43.164;27.786;2023-04-04T08:13:34;99386.16;;;9.94;100.00
63088;BME280;49173;43.164;27.786;2023-04-04T08:16:00;99375.22;;;9.97;100.00
63088;BME280;49173;43.164;27.786;2023-04-04T08:18:27;99393.00;;;9.98;100.00
63088;BME280;49173;43.164;27.786;2023-04-04T08:20:55;99391.19;;;9.99;100.00
63088;BME280;49173;43.164;27.786;2023-04-04T08:23:24;99383.81;;;10.02;100.00
63088;BME280;49173;43.164;27.786;2023-04-04T08:25:51;99391.44;;;10.08;100.00
63088;BME280;49173;43.164;27.786;2023-04-04T08:28:17;99399.69;;;10.05;100.00
63088;BME280;49173;43.164;27.786;2023-04-04T08:30:52;99398.81;;;10.05;100.00
63088;BME280;49173;43.164;27.786;2023-04-04T08:33:22;99397.97;;;10.04;100.00
63088;BME280;49173;43.164;27.786;2023-04-04T08:35:52;99409.34;;;10.08;100.00
63088;BME280;49173;43.164;27.786;2023-04-04T08:38:19;99397.00;;;10.05;100.00
63088;BME280;49173;43.164;27.786;2023-04-04T08:40:46;99399.38;;;10.10;100.00
63088;BME280;49173;43.164;27.786;2023-04-04T08:43:15;99404.63;;;10.11;100.00
63088;BME280;49173;43.164;27.786;2023-04-04T08:45:45;99417.81;;;10.14;100.00
63088;BME280;49173;43.164;27.786;2023-04-04T08:48:14;99404.63;;;10.11;99.89
63088;BME280;49173;43.164;27.786;2023-04-04T08:50:42;99419.19;;;10.07;100.00
63088;BME280;49173;43.164;27.786;2023-04-04T08:53:13;99413.63;;;10.10;100.00
63088;BME280;49173;43.164;27.786;2023-04-04T08:55:42;99411.28;;;10.18;100.00
63088;BME280;49173;43.164;27.786;2023-04-04T08:58:10;99407.75;;;10.18;100.00
63088;BME280;49173;43.164;27.786;2023-04-04T09:00:37;99405.06;;;10.18;100.00
63088;BME280;49173;43.164;27.786;2023-04-04T09:03:09;99407.63;;;10.19;100.00
63088;BME280;49173;43.164;27.786;2023-04-04T09:05:40;99397.50;;;10.25;100.00
63088;BME280;49173;43.164;27.786;2023-04-04T09:08:12;99393.94;;;10.24;100.00
63088;BME280;49173;43.164;27.786;2023-04-04T09:10:40;99400.28;;;10.36;100.00
63088;BME280;49173;43.164;27.786;2023-04-04T09:13:09;99404.03;;;10.46;100.00
63088;BME280;49173;43.164;27.786;2023-04-04T09:15:37;99413.59;;;10.50;100.00
63088;BME280;49173;43.164;27.786;2023-04-04T09:18:06;99398.13;;;10.54;99.47
63088;BME280;49173;43.164;27.786;2023-04-04T09:20:43;99411.44;;;10.55;99.17
63088;BME280;49173;43.164;27.786;2023-04-04T09:23:14;99418.19;;;10.61;98.97
63088;BME280;49173;43.164;27.786;2023-04-04T09:28:15;99411.31;;;10.69;98.52
63088;BME280;49173;43.164;27.786;2023-04-04T09:30:43;99412.59;;;10.77;98.13
63088;BME280;49173;43.164;27.786;2023-04-04T09:33:11;99417.78;;;10.80;97.95
63088;BME280;49173;43.164;27.786;2023-04-04T09:35:46;99419.50;;;10.81;97.29
63088;BME280;49173;43.164;27.786;2023-04-04T09:38:15;99429.47;;;10.79;97.12
63088;BME280;49173;43.164;27.786;2023-04-04T09:40:47;99415.41;;;10.75;96.92
63088;BME280;49173;43.164;27.786;2023-04-04T09:43:16;99415.41;;;10.75;97.47
63088;BME280;49173;43.164;27.786;2023-04-04T09:45:44;99414.13;;;10.81;98.15
63088;BME280;49173;43.164;27.786;2023-04-04T09:48:11;99410.03;;;10.88;97.75
63088;BME280;49173;43.164;27.786;2023-04-04T09:50:44;99402.72;;;10.90;97.76
63088;BME280;49173;43.164;27.786;2023-04-04T09:53:18;99408.63;;;10.95;97.00
63088;BME280;49173;43.164;27.786;2023-04-04T09:55:56;99414.97;;;10.94;96.97
63088;BME280;49173;43.164;27.786;2023-04-04T09:58:27;99406.25;;;10.90;96.87
63088;BME280;49173;43.164;27.786;2023-04-04T10:00:57;99398.75;;;10.95;97.19
63088;BME280;49173;43.164;27.786;2023-04-04T10:03:26;99392.81;;;11.03;97.60
63088;BME280;49173;43.164;27.786;2023-04-04T10:06:04;99397.41;;;11.14;97.84
63088;BME280;49173;43.164;27.786;2023-04-04T10:08:31;99413.84;;;11.09;96.51
63088;BME280;49173;43.164;27.786;2023-04-04T10:11:03;99420.09;;;11.10;96.65
63088;BME280;49173;43.164;27.786;2023-04-04T10:13:35;99401.28;;;11.10;96.41
63088;BME280;49173;43.164;27.786;2023-04-04T10:16:07;99414.81;;;11.08;96.44
63088;BME280;49173;43.164;27.786;2023-04-04T10:18:34;99400.63;;;11.06;96.14
63088;BME280;49173;43.164;27.786;2023-04-04T10:21:03;99410.31;;;11.09;97.05
63088;BME280;49173;43.164;27.786;2023-04-04T10:23:31;99409.50;;;11.19;97.14
63088;BME280;49173;43.164;27.786;2023-04-04T10:25:59;99411.88;;;11.24;96.27
63088;BME280;49173;43.164;27.786;2023-04-04T10:28:27;99408.00;;;11.28;96.02
63088;BME280;49173;43.164;27.786;2023-04-04T10:33:39;99405.75;;;11.35;95.34
63088;BME280;49173;43.164;27.786;2023-04-04T10:36:07;99407.31;;;11.37;95.12
63088;BME280;49173;43.164;27.786;2023-04-04T10:38:42;99410.88;;;11.38;95.60
63088;BME280;49173;43.164;27.786;2023-04-04T10:41:12;99420.03;;;11.35;95.37
63088;BME280;49173;43.164;27.786;2023-04-04T10:43:40;99410.34;;;11.33;95.07
63088;BME280;49173;43.164;27.786;2023-04-04T10:46:10;99409.91;;;11.39;95.37
63088;BME280;49173;43.164;27.786;2023-04-04T10:48:39;99411.28;;;11.44;95.11
63088;BME280;49173;43.164;27.786;2023-04-04T10:51:09;99406.31;;;11.51;95.21
63088;BME280;49173;43.164;27.786;2023-04-04T10:53:38;99412.22;;;11.56;94.47
63088;BME280;49173;43.164;27.786;2023-04-04T10:56:09;99416.59;;;11.57;94.70
63088;BME280;49173;43.164;27.786;2023-04-04T10:58:39;99408.44;;;11.59;94.42
63088;BME280;49173;43.164;27.786;2023-04-04T11:01:09;99414.78;;;11.58;93.69
63088;BME280;49173;43.164;27.786;2023-04-04T11:09:48;99395.69;;;11.49;94.50
63088;BME280;49173;43.164;27.786;2023-04-04T11:12:15;99398.53;;;11.59;94.40
63088;BME280;49173;43.164;27.786;2023-04-04T11:22:50;99394.25;;;11.80;93.19
63088;BME280;49173;43.164;27.786;2023-04-04T11:25:39;99388.88;;;11.80;93.45
63088;BME280;49173;43.164;27.786;2023-04-04T11:28:23;99387.16;;;11.79;93.63
63088;BME280;49173;43.164;27.786;2023-04-04T11:34:03;99398.53;;;11.83;94.15
63088;BME280;49173;43.164;27.786;2023-04-04T11:39:22;99403.25;;;11.92;94.45
63088;BME280;49173;43.164;27.786;2023-04-04T11:44:30;99387.72;;;11.96;93.73
63088;BME280;49173;43.164;27.786;2023-04-04T11:49:45;99389.69;;;12.05;93.40
63088;BME280;49173;43.164;27.786;2023-04-04T11:52:18;99385.28;;;12.04;93.13
63088;BME280;49173;43.164;27.786;2023-04-04T11:54:47;99393.50;;;12.02;92.89
63088;BME280;49173;43.164;27.786;2023-04-04T11:57:19;99383.19;;;11.96;92.56
63088;BME280;49173;43.164;27.786;2023-04-04T11:59:49;99385.16;;;11.94;93.47
63088;BME280;49173;43.164;27.786;2023-04-04T12:02:37;99380.97;;;11.90;93.45
63088;BME280;49173;43.164;27.786;2023-04-04T12:05:04;99383.31;;;11.95;93.37
63088;BME280;49173;43.164;27.786;2023-04-04T12:07:36;99377.34;;;12.02;92.75
63088;BME280;49173;43.164;27.786;2023-04-04T12:10:05;99379.97;;;12.15;93.34
63088;BME280;49173;43.164;27.786;2023-04-04T12:12:37;99383.16;;;12.31;93.27
63088;BME280;49173;43.164;27.786;2023-04-04T12:15:06;99385.16;;;12.52;92.36
63088;BME280;49173;43.164;27.786;2023-04-04T12:17:38;99381.72;;;12.61;91.88
63088;BME280;49173;43.164;27.786;2023-04-04T12:20:04;99386.16;;;12.73;90.59
63088;BME280;49173;43.164;27.786;2023-04-04T12:22:34;99377.47;;;12.81;89.85
63088;BME280;49173;43.164;27.786;2023-04-04T12:25:01;99374.06;;;12.90;88.94
63088;BME280;49173;43.164;27.786;2023-04-04T12:27:28;99376.47;;;12.93;88.41
63088;BME280;49173;43.164;27.786;2023-04-04T12:29:58;99374.28;;;12.98;89.06
63088;BME280;49173;43.164;27.786;2023-04-04T12:32:29;99369.63;;;13.00;88.51
63088;BME280;49173;43.164;27.786;2023-04-04T12:34:59;99375.50;;;13.05;88.72
63088;BME280;49173;43.164;27.786;2023-04-04T12:37:30;99359.69;;;13.12;88.67
63088;BME280;49173;43.164;27.786;2023-04-04T12:40:00;99365.53;;;13.17;87.80
63088;BME280;49173;43.164;27.786;2023-04-04T12:42:30;99360.31;;;13.27;86.55
63088;BME280;49173;43.164;27.786;2023-04-04T12:45:01;99362.09;;;13.37;86.17
63088;BME280;49173;43.164;27.786;2023-04-04T12:47:29;99363.31;;;13.44;86.40
63088;BME280;49173;43.164;27.786;2023-04-04T12:49:56;99358.13;;;13.53;85.85
63088;BME280;49173;43.164;27.786;2023-04-04T12:52:29;99344.28;;;13.57;84.47
63088;BME280;49173;43.164;27.786;2023-04-04T12:55:07;99341.34;;;13.60;84.31
63088;BME280;49173;43.164;27.786;2023-04-04T12:57:36;99342.78;;;13.64;85.24
63088;BME280;49173;43.164;27.786;2023-04-04T13:00:04;99332.00;;;13.64;83.86
63088;BME280;49173;43.164;27.786;2023-04-04T13:02:34;99335.81;;;13.62;83.58
63088;BME280;49173;43.164;27.786;2023-04-04T13:05:03;99326.38;;;13.67;83.70
63088;BME280;49173;43.164;27.786;2023-04-04T13:07:35;99333.53;;;13.78;82.93
63088;BME280;49173;43.164;27.786;2023-04-04T13:10:10;99343.09;;;13.82;82.75
63088;BME280;49173;43.164;27.786;2023-04-04T13:12:55;99346.22;;;13.87;81.80
63088;BME280;49173;43.164;27.786;2023-04-04T13:16:09;99348.94;;;13.87;82.61
63088;BME280;49173;43.164;27.786;2023-04-04T13:18:21;99340.13;;;13.85;81.86
63088;BME280;49173;43.164;27.786;2023-04-04T13:20:48;99347.94;;;13.88;81.54
63088;BME280;49173;43.164;27.786;2023-04-04T13:23:17;99337.28;;;13.87;81.61
63088;BME280;49173;43.164;27.786;2023-04-04T13:25:45;99327.97;;;13.91;81.95
63088;BME280;49173;43.164;27.786;2023-04-04T13:28:13;99328.44;;;13.96;80.21
63088;BME280;49173;43.164;27.786;2023-04-04T13:30:39;99339.09;;;13.97;80.42
63088;BME280;49173;43.164;27.786;2023-04-04T13:33:11;99332.97;;;13.95;80.16
63088;BME280;49173;43.164;27.786;2023-04-04T13:35:44;99332.69;;;13.98;79.68
63088;BME280;49173;43.164;27.786;2023-04-04T13:38:14;99353.56;;;13.96;79.50
63088;BME280;49173;43.164;27.786;2023-04-04T13:40:44;99344.19;;;14.00;79.30